sensor_id;sensor_type;location;lat;lon;timestamp;pressure;altitude;pressure_sealevel;temperature;humidity
15487;BME280;7845;53.698;10.078;2023-04-20T00:01:20;101949.72;;;13.18;56.03
15487;BME280;7845;53.698;10.078;2023-04-20T00:03:47;101947.91;;;12.81;56.07
15487;BME280;7845;53.698;10.078;2023-04-20T00:06:12;101940.97;;;13.08;57.30
15487;BME280;7845;53.698;10.078;2023-04-20T00:08:38;101945.31;;;12.97;57.21
15487;BME280;7845;53.698;10.078;2023-04-20T00:11:03;101942.66;;;12.71;58.18
15487;BME280;7845;53.698;10.078;2023-04-20T00:13:29;101947.03;;;12.74;59.02
15487;BME280;7845;53.698;10.078;2023-04-20T00:15:57;101951.31;;;12.49;60.63
15487;BME280;7845;53.698;10.078;2023-04-20T00:18:24;101953.03;;;12.38;60.80
15487;BME280;7845;53.698;10.078;2023-04-20T00:20:49;101941.78;;;12.75;60.96
15487;BME280;7845;53.698;10.078;2023-04-20T00:23:15;101947.00;;;12.75;61.35
15487;BME280;7845;53.698;10.078;2023-04-20T00:25:41;101938.34;;;12.87;60.94
15487;BME280;7845;53.698;10.078;2023-04-20T00:28:07;101953.06;;;12.47;62.51
15487;BME280;7845;53.698;10.078;2023-04-20T00:30:33;101948.75;;;12.64;62.59
15487;BME280;7845;53.698;10.078;2023-04-20T00:32:59;101942.63;;;12.56;64.73
15487;BME280;7845;53.698;10.078;2023-04-20T00:35:25;101948.78;;;12.93;65.58
15487;BME280;7845;53.698;10.078;2023-04-20T00:37:51;101941.75;;;12.65;68.26
15487;BME280;7845;53.698;10.078;2023-04-20T00:40:16;101962.69;;;12.48;70.71
15487;BME280;7845;53.698;10.078;2023-04-20T00:42:41;101977.41;;;12.27;73.72
15487;BME280;7845;53.698;10.078;2023-04-20T00:45:08;101972.19;;;12.30;75.60
15487;BME280;7845;53.698;10.078;2023-04-20T00:47:34;101951.09;;;12.01;74.39
15487;BME280;7845;53.698;10.078;2023-04-20T00:50:00;101934.72;;;12.47;74.14
15487;BME280;7845;53.698;10.078;2023-04-20T00:52:26;101919.00;;;12.43;74.23
15487;BME280;7845;53.698;10.078;2023-04-20T00:54:51;101928.44;;;12.01;73.54
15487;BME280;7845;53.698;10.078;2023-04-20T00:57:18;101925.09;;;12.36;73.25
15487;BME280;7845;53.698;10.078;2023-04-20T00:59:48;101947.66;;;12.06;72.62
15487;BME280;7845;53.698;10.078;2023-04-20T01:02:14;101930.34;;;12.40;73.27
15487;BME280;7845;53.698;10.078;2023-04-20T01:04:40;101908.53;;;12.46;73.51
15487;BME280;7845;53.698;10.078;2023-04-20T01:07:05;101919.88;;;12.43;73.02
15487;BME280;7845;53.698;10.078;2023-04-20T01:09:31;101910.31;;;12.56;73.51
15487;BME280;7845;53.698;10.078;2023-04-20T01:11:56;101906.78;;;12.46;73.42
15487;BME280;7845;53.698;10.078;2023-04-20T01:14:22;101908.50;;;12.34;74.23
15487;BME280;7845;53.698;10.078;2023-04-20T01:16:49;101906.81;;;12.58;71.94
15487;BME280;7845;53.698;10.078;2023-04-20T01:19:16;101898.13;;;12.97;72.63
15487;BME280;7845;53.698;10.078;2023-04-20T01:21:41;101914.63;;;12.40;75.06
15487;BME280;7845;53.698;10.078;2023-04-20T01:24:07;101905.88;;;12.37;76.42
15487;BME280;7845;53.698;10.078;2023-04-20T01:26:32;101915.44;;;12.23;77.77
15487;BME280;7845;53.698;10.078;2023-04-20T01:28:57;101909.34;;;12.28;78.75
15487;BME280;7845;53.698;10.078;2023-04-20T01:31:23;101899.69;;;12.13;79.53
15487;BME280;7845;53.698;10.078;2023-04-20T01:33:48;101897.16;;;12.30;79.19
15487;BME280;7845;53.698;10.078;2023-04-20T01:36:14;101891.09;;;12.55;78.66
15487;BME280;7845;53.698;10.078;2023-04-20T01:38:39;101902.34;;;12.23;79.16
15487;BME280;7845;53.698;10.078;2023-04-20T01:41:06;101896.34;;;12.61;78.41
15487;BME280;7845;53.698;10.078;2023-04-20T01:43:33;101924.13;;;12.14;80.79
15487;BME280;7845;53.698;10.078;2023-04-20T01:46:00;101909.38;;;12.40;81.57
15487;BME280;7845;53.698;10.078;2023-04-20T01:48:26;101919.81;;;12.28;83.30
15487;BME280;7845;53.698;10.078;2023-04-20T01:50:51;101915.56;;;12.59;84.57
15487;BME280;7845;53.698;10.078;2023-04-20T01:53:16;101916.31;;;12.15;85.98
15487;BME280;7845;53.698;10.078;2023-04-20T01:55:42;101917.09;;;12.07;85.59
15487;BME280;7845;53.698;10.078;2023-04-20T01:58:07;101914.50;;;12.08;89.26
15487;BME280;7845;53.698;10.078;2023-04-20T02:00:33;101902.47;;;12.51;89.67
15487;BME280;7845;53.698;10.078;2023-04-20T02:02:58;101929.16;;;11.73;93.49
15487;BME280;7845;53.698;10.078;2023-04-20T02:05:23;101921.34;;;11.84;100.00
15487;BME280;7845;53.698;10.078;2023-04-20T02:07:49;101941.16;;;11.53;100.00
15487;BME280;7845;53.698;10.078;2023-04-20T02:10:15;101948.84;;;11.30;100.00
15487;BME280;7845;53.698;10.078;2023-04-20T02:12:40;101943.75;;;11.45;100.00
15487;BME280;7845;53.698;10.078;2023-04-20T02:15:06;101935.78;;;11.30;100.00
15487;BME280;7845;53.698;10.078;2023-04-20T02:17:33;101938.53;;;11.50;100.00
15487;BME280;7845;53.698;10.078;2023-04-20T02:20:00;101945.75;;;11.78;100.00
15487;BME280;7845;53.698;10.078;2023-04-20T02:22:25;101943.69;;;11.39;100.00
15487;BME280;7845;53.698;10.078;2023-04-20T02:24:51;101943.31;;;10.97;100.00
15487;BME280;7845;53.698;10.078;2023-04-20T02:27:16;101932.09;;;11.08;100.00
15487;BME280;7845;53.698;10.078;2023-04-20T02:29:41;101949.63;;;11.19;100.00
15487;BME280;7845;53.698;10.078;2023-04-20T02:32:06;101943.97;;;11.73;100.00
15487;BME280;7845;53.698;10.078;2023-04-20T02:34:32;101936.81;;;11.49;100.00
15487;BME280;7845;53.698;10.078;2023-04-20T02:36:57;101926.19;;;11.28;100.00
15487;BME280;7845;53.698;10.078;2023-04-20T02:39:22;101925.41;;;11.38;100.00
15487;BME280;7845;53.698;10.078;2023-04-20T02:41:48;101913.06;;;11.23;100.00
15487;BME280;7845;53.698;10.078;2023-04-20T02:44:13;101927.69;;;11.00;100.00
15487;BME280;7845;53.698;10.078;2023-04-20T02:46:38;101928.81;;;11.28;100.00
15487;BME280;7845;53.698;10.078;2023-04-20T02:49:04;101917.66;;;11.51;100.00
15487;BME280;7845;53.698;10.078;2023-04-20T02:51:29;101914.34;;;11.75;100.00
15487;BME280;7845;53.698;10.078;2023-04-20T02:53:56;101915.94;;;11.58;100.00
15487;BME280;7845;53.698;10.078;2023-04-20T02:56:21;101916.97;;;11.78;100.00
15487;BME280;7845;53.698;10.078;2023-04-20T02:58:46;101904.72;;;11.74;100.00
15487;BME280;7845;53.698;10.078;2023-04-20T03:01:16;101904.50;;;11.39;100.00
15487;BME280;7845;53.698;10.078;2023-04-20T03:03:41;101893.56;;;12.02;100.00
15487;BME280;7845;53.698;10.078;2023-04-20T03:06:07;101897.97;;;12.15;100.00
15487;BME280;7845;53.698;10.078;2023-04-20T03:08:32;101899.53;;;11.80;100.00
15487;BME280;7845;53.698;10.078;2023-04-20T03:10:57;101905.66;;;11.81;100.00
15487;BME280;7845;53.698;10.078;2023-04-20T03:13:23;101905.72;;;11.93;100.00
15487;BME280;7845;53.698;10.078;2023-04-20T03:15:48;101906.69;;;12.17;100.00
15487;BME280;7845;53.698;10.078;2023-04-20T03:18:13;101900.25;;;11.59;100.00
15487;BME280;7845;53.698;10.078;2023-04-20T03:20:38;101894.22;;;11.66;100.00
15487;BME280;7845;53.698;10.078;2023-04-20T03:23:04;101894.34;;;11.86;100.00
15487;BME280;7845;53.698;10.078;2023-04-20T03:25:30;101910.69;;;11.56;100.00
15487;BME280;7845;53.698;10.078;2023-04-20T03:27:55;101913.28;;;11.50;100.00
15487;BME280;7845;53.698;10.078;2023-04-20T03:30:20;101921.88;;;11.31;100.00
15487;BME280;7845;53.698;10.078;2023-04-20T03:32:46;101925.22;;;11.18;100.00
15487;BME280;7845;53.698;10.078;2023-04-20T03:35:11;101946.50;;;11.68;100.00
15487;BME280;7845;53.698;10.078;2023-04-20T03:37:37;101943.41;;;11.04;100.00
15487;BME280;7845;53.698;10.078;2023-04-20T03:40:03;101951.78;;;10.73;100.00
15487;BME280;7845;53.698;10.078;2023-04-20T03:42:28;101952.28;;;11.25;100.00
15487;BME280;7845;53.698;10.078;2023-04-20T03:44:54;101953.75;;;10.92;100.00
15487;BME280;7845;53.698;10.078;2023-04-20T03:47:20;101934.84;;;11.22;100.00
15487;BME280;7845;53.698;10.078;2023-04-20T03:49:45;101956.63;;;11.21;100.00
15487;BME280;7845;53.698;10.078;2023-04-20T03:52:10;101959.31;;;11.30;100.00
15487;BME280;7845;53.698;10.078;2023-04-20T03:54:36;101957.47;;;11.19;100.00
15487;BME280;7845;53.698;10.078;2023-04-20T03:57:01;101945.84;;;10.88;100.00
15487;BME280;7845;53.698;10.078;2023-04-20T03:59:26;101953.88;;;11.04;100.00
15487;BME280;7845;53.698;10.078;2023-04-20T04:01:52;101949.63;;;11.19;100.00
15487;BME280;7845;53.698;10.078;2023-04-20T04:04:18;101949.50;;;11.03;100.00
15487;BME280;7845;53.698;10.078;2023-04-20T04:06:44;101949.31;;;10.85;100.00
15487;BME280;7845;53.698;10.078;2023-04-20T04:09:10;101938.41;;;11.30;100.00
15487;BME280;7845;53.698;10.078;2023-04-20T04:11:35;101932.13;;;11.11;100.00
15487;BME280;7845;53.698;10.078;2023-04-20T04:14:00;101931.31;;;11.17;100.00
15487;BME280;7845;53.698;10.078;2023-04-20T04:16:29;101928.03;;;11.38;100.00
15487;BME280;7845;53.698;10.078;2023-04-20T04:18:54;101933.34;;;11.56;100.00
15487;BME280;7845;53.698;10.078;2023-04-20T04:21:19;101928.88;;;11.37;100.00
15487;BME280;7845;53.698;10.078;2023-04-20T04:23:45;101941.63;;;11.00;100.00
15487;BME280;7845;53.698;10.078;2023-04-20T04:26:10;101943.09;;;10.71;100.00
15487;BME280;7845;53.698;10.078;2023-04-20T04:28:38;101939.59;;;10.69;100.00
15487;BME280;7845;53.698;10.078;2023-04-20T04:31:04;101942.38;;;10.89;100.00
15487;BME280;7845;53.698;10.078;2023-04-20T04:33:30;101942.13;;;10.65;100.00
15487;BME280;7845;53.698;10.078;2023-04-20T04:35:58;101951.09;;;10.89;100.00
15487;BME280;7845;53.698;10.078;2023-04-20T04:38:24;101957.94;;;10.77;100.00
15487;BME280;7845;53.698;10.078;2023-04-20T04:40:51;101959.53;;;10.63;100.00
15487;BME280;7845;53.698;10.078;2023-04-20T04:43:16;101958.78;;;10.74;100.00
15487;BME280;7845;53.698;10.078;2023-04-20T04:45:43;101967.47;;;10.72;100.00
15487;BME280;7845;53.698;10.078;2023-04-20T04:48:10;101960.69;;;10.92;100.00
15487;BME280;7845;53.698;10.078;2023-04-20T04:50:39;101966.09;;;11.10;100.00
15487;BME280;7845;53.698;10.078;2023-04-20T04:53:04;101957.31;;;11.00;100.00
15487;BME280;7845;53.698;10.078;2023-04-20T04:55:30;101949.56;;;11.14;100.00
15487;BME280;7845;53.698;10.078;2023-04-20T04:57:55;101944.56;;;11.41;100.00
15487;BME280;7845;53.698;10.078;2023-04-20T05:00:21;101947.72;;;11.02;100.00
15487;BME280;7845;53.698;10.078;2023-04-20T05:02:47;101947.16;;;11.34;100.00
15487;BME280;7845;53.698;10.078;2023-04-20T05:05:13;101942.00;;;11.47;100.00
15487;BME280;7845;53.698;10.078;2023-04-20T05:07:39;101943.56;;;11.20;100.00
15487;BME280;7845;53.698;10.078;2023-04-20T05:10:05;101951.22;;;11.03;100.00
15487;BME280;7845;53.698;10.078;2023-04-20T05:12:31;101957.69;;;11.46;100.00
15487;BME280;7845;53.698;10.078;2023-04-20T05:14:56;101951.56;;;11.42;100.00
15487;BME280;7845;53.698;10.078;2023-04-20T05:17:21;101955.56;;;11.02;100.00
15487;BME280;7845;53.698;10.078;2023-04-20T05:19:46;101948.81;;;11.23;100.00
15487;BME280;7845;53.698;10.078;2023-04-20T05:22:12;101955.56;;;11.01;100.00
15487;BME280;7845;53.698;10.078;2023-04-20T05:24:37;101953.75;;;10.92;100.00
15487;BME280;7845;53.698;10.078;2023-04-20T05:27:03;101963.25;;;10.86;100.00
15487;BME280;7845;53.698;10.078;2023-04-20T05:29:28;101965.03;;;10.90;100.00
15487;BME280;7845;53.698;10.078;2023-04-20T05:31:53;101971.63;;;10.56;100.00
15487;BME280;7845;53.698;10.078;2023-04-20T05:34:19;101966.09;;;11.11;100.00
15487;BME280;7845;53.698;10.078;2023-04-20T05:36:45;101961.63;;;10.97;100.00
15487;BME280;7845;53.698;10.078;2023-04-20T05:39:11;101970.41;;;11.06;100.00
15487;BME280;7845;53.698;10.078;2023-04-20T05:41:36;101971.31;;;11.11;100.00
15487;BME280;7845;53.698;10.078;2023-04-20T05:44:01;101967.28;;;11.44;100.00
15487;BME280;7845;53.698;10.078;2023-04-20T05:46:26;101967.34;;;11.54;100.00
15487;BME280;7845;53.698;10.078;2023-04-20T05:48:53;101967.03;;;11.17;100.00
15487;BME280;7845;53.698;10.078;2023-04-20T05:51:18;101961.19;;;11.48;100.00
15487;BME280;7845;53.698;10.078;2023-04-20T05:53:44;101966.28;;;11.28;100.00
15487;BME280;7845;53.698;10.078;2023-04-20T05:56:11;101963.81;;;11.51;100.00
15487;BME280;7845;53.698;10.078;2023-04-20T05:58:37;101964.72;;;11.51;100.00
15487;BME280;7845;53.698;10.078;2023-04-20T06:01:03;101956.81;;;11.44;100.00
15487;BME280;7845;53.698;10.078;2023-04-20T06:03:29;101959.16;;;11.12;100.00
15487;BME280;7845;53.698;10.078;2023-04-20T06:05:55;101966.31;;;11.34;100.00
15487;BME280;7845;53.698;10.078;2023-04-20T06:08:20;101964.28;;;11.03;100.00
15487;BME280;7845;53.698;10.078;2023-04-20T06:10:46;101963.78;;;11.45;100.00
15487;BME280;7845;53.698;10.078;2023-04-20T06:13:11;101963.59;;;11.24;100.00
15487;BME280;7845;53.698;10.078;2023-04-20T06:15:36;101959.88;;;10.97;100.00
15487;BME280;7845;53.698;10.078;2023-04-20T06:18:03;101963.59;;;11.24;100.00
15487;BME280;7845;53.698;10.078;2023-04-20T06:20:29;101964.72;;;11.53;100.00
15487;BME280;7845;53.698;10.078;2023-04-20T06:22:54;101962.81;;;11.31;100.00
15487;BME280;7845;53.698;10.078;2023-04-20T06:25:20;101966.06;;;11.07;100.00
15487;BME280;7845;53.698;10.078;2023-04-20T06:27:45;101969.31;;;10.85;100.00
15487;BME280;7845;53.698;10.078;2023-04-20T06:30:12;101968.13;;;11.44;100.00
15487;BME280;7845;53.698;10.078;2023-04-20T06:32:37;101969.13;;;11.58;100.00
15487;BME280;7845;53.698;10.078;2023-04-20T06:35:04;101961.63;;;10.95;100.00
15487;BME280;7845;53.698;10.078;2023-04-20T06:37:30;101967.38;;;11.59;100.00
15487;BME280;7845;53.698;10.078;2023-04-20T06:39:55;101963.53;;;11.18;100.00
15487;BME280;7845;53.698;10.078;2023-04-20T06:42:21;101961.91;;;11.27;100.00
15487;BME280;7845;53.698;10.078;2023-04-20T06:44:46;101962.97;;;11.53;100.00
15487;BME280;7845;53.698;10.078;2023-04-20T06:47:12;101956.00;;;11.49;100.00
15487;BME280;7845;53.698;10.078;2023-04-20T06:49:37;101960.22;;;11.38;100.00
15487;BME280;7845;53.698;10.078;2023-04-20T06:52:05;101976.84;;;11.43;100.00
15487;BME280;7845;53.698;10.078;2023-04-20T06:54:31;101976.59;;;11.15;100.00
15487;BME280;7845;53.698;10.078;2023-04-20T06:56:56;101980.19;;;11.27;100.00
15487;BME280;7845;53.698;10.078;2023-04-20T06:59:22;101987.13;;;11.22;100.00
15487;BME280;7845;53.698;10.078;2023-04-20T07:01:47;101980.25;;;11.33;100.00
15487;BME280;7845;53.698;10.078;2023-04-20T07:04:12;101985.38;;;11.21;100.00
15487;BME280;7845;53.698;10.078;2023-04-20T07:06:38;101982.63;;;11.07;100.00
15487;BME280;7845;53.698;10.078;2023-04-20T07:09:03;101986.97;;;11.07;100.00
15487;BME280;7845;53.698;10.078;2023-04-20T07:11:29;101979.28;;;11.22;100.00
15487;BME280;7845;53.698;10.078;2023-04-20T07:13:54;101983.59;;;11.20;100.00
15487;BME280;7845;53.698;10.078;2023-04-20T07:16:20;101979.50;;;11.48;100.00
15487;BME280;7845;53.698;10.078;2023-04-20T07:18:45;101988.28;;;10.67;100.00
15487;BME280;7845;53.698;10.078;2023-04-20T07:21:10;101998.53;;;11.32;100.00
15487;BME280;7845;53.698;10.078;2023-04-20T07:23:35;101992.53;;;11.43;100.00
15487;BME280;7845;53.698;10.078;2023-04-20T07:26:01;101985.78;;;11.71;100.00
15487;BME280;7845;53.698;10.078;2023-04-20T07:28:26;101989.94;;;11.46;100.00
15487;BME280;7845;53.698;10.078;2023-04-20T07:30:52;101994.44;;;11.61;100.00
15487;BME280;7845;53.698;10.078;2023-04-20T07:33:17;101988.81;;;11.20;100.00
15487;BME280;7845;53.698;10.078;2023-04-20T07:35:42;101989.06;;;11.46;100.00
15487;BME280;7845;53.698;10.078;2023-04-20T07:38:08;101991.78;;;11.59;100.00
15487;BME280;7845;53.698;10.078;2023-04-20T07:40:34;101993.59;;;11.68;100.00
15487;BME280;7845;53.698;10.078;2023-04-20T07:42:59;101997.09;;;11.67;100.00
15487;BME280;7845;53.698;10.078;2023-04-20T07:45:24;102001.53;;;11.76;100.00
15487;BME280;7845;53.698;10.078;2023-04-20T07:47:50;102009.00;;;11.32;100.00
15487;BME280;7845;53.698;10.078;2023-04-20T07:50:16;102011.16;;;11.78;100.00
15487;BME280;7845;53.698;10.078;2023-04-20T07:52:42;102016.47;;;11.95;100.00
15487;BME280;7845;53.698;10.078;2023-04-20T07:55:10;102021.16;;;11.28;100.00
15487;BME280;7845;53.698;10.078;2023-04-20T07:57:39;102013.47;;;11.46;100.00
15487;BME280;7845;53.698;10.078;2023-04-20T08:00:06;102015.69;;;12.03;100.00
15487;BME280;7845;53.698;10.078;2023-04-20T08:02:32;102007.38;;;11.47;100.00
15487;BME280;7845;53.698;10.078;2023-04-20T08:04:57;102015.28;;;11.52;100.00
15487;BME280;7845;53.698;10.078;2023-04-20T08:07:22;102003.28;;;11.75;100.00
15487;BME280;7845;53.698;10.078;2023-04-20T08:09:48;102004.16;;;11.76;100.00
15487;BME280;7845;53.698;10.078;2023-04-20T08:12:13;102010.25;;;11.75;100.00
15487;BME280;7845;53.698;10.078;2023-04-20T08:14:39;102011.81;;;11.54;100.00
15487;BME280;7845;53.698;10.078;2023-04-20T08:17:05;102034.56;;;11.66;100.00
15487;BME280;7845;53.698;10.078;2023-04-20T08:19:31;102022.50;;;11.79;100.00
15487;BME280;7845;53.698;10.078;2023-04-20T08:21:56;102020.69;;;11.70;100.00
15487;BME280;7845;53.698;10.078;2023-04-20T08:24:22;102036.28;;;11.65;100.00
15487;BME280;7845;53.698;10.078;2023-04-20T08:26:47;102050.16;;;11.55;100.00
15487;BME280;7845;53.698;10.078;2023-04-20T08:29:13;102050.00;;;11.39;100.00
15487;BME280;7845;53.698;10.078;2023-04-20T08:31:40;102045.28;;;11.03;100.00
15487;BME280;7845;53.698;10.078;2023-04-20T08:34:07;102048.47;;;11.60;100.00
15487;BME280;7845;53.698;10.078;2023-04-20T08:36:32;102050.88;;;11.38;100.00
15487;BME280;7845;53.698;10.078;2023-04-20T08:39:11;102063.41;;;11.71;100.00
15487;BME280;7845;53.698;10.078;2023-04-20T08:41:37;102050.47;;;11.92;100.00
15487;BME280;7845;53.698;10.078;2023-04-20T08:44:03;102053.69;;;11.62;100.00
15487;BME280;7845;53.698;10.078;2023-04-20T08:46:29;102034.69;;;11.78;100.00
15487;BME280;7845;53.698;10.078;2023-04-20T08:48:55;102042.66;;;11.93;100.00
15487;BME280;7845;53.698;10.078;2023-04-20T08:51:22;102036.69;;;12.17;100.00
15487;BME280;7845;53.698;10.078;2023-04-20T08:53:48;102038.53;;;12.35;100.00
15487;BME280;7845;53.698;10.078;2023-04-20T08:56:14;102026.38;;;12.44;100.00
15487;BME280;7845;53.698;10.078;2023-04-20T08:58:39;102017.38;;;11.98;100.00
15487;BME280;7845;53.698;10.078;2023-04-20T09:01:09;102028.88;;;12.23;100.00
15487;BME280;7845;53.698;10.078;2023-04-20T09:03:38;102018.59;;;12.59;100.00
15487;BME280;7845;53.698;10.078;2023-04-20T09:06:15;102030.00;;;12.75;100.00
15487;BME280;7845;53.698;10.078;2023-04-20T09:08:41;102034.91;;;12.08;100.00
15487;BME280;7845;53.698;10.078;2023-04-20T09:11:19;102010.47;;;12.03;100.00
15487;BME280;7845;53.698;10.078;2023-04-20T09:14:06;102019.97;;;11.91;100.00
15487;BME280;7845;53.698;10.078;2023-04-20T09:16:35;102031.44;;;12.09;100.00
15487;BME280;7845;53.698;10.078;2023-04-20T09:19:01;102036.78;;;12.29;100.00
15487;BME280;7845;53.698;10.078;2023-04-20T09:21:27;102035.28;;;12.95;100.00
15487;BME280;7845;53.698;10.078;2023-04-20T09:24:01;102024.03;;;13.21;100.00
15487;BME280;7845;53.698;10.078;2023-04-20T09:26:34;102035.31;;;13.04;100.00
15487;BME280;7845;53.698;10.078;2023-04-20T09:29:03;102031.84;;;13.05;100.00
15487;BME280;7845;53.698;10.078;2023-04-20T09:31:28;102029.28;;;13.41;100.00
15487;BME280;7845;53.698;10.078;2023-04-20T09:34:01;102030.16;;;13.19;100.00
15487;BME280;7845;53.698;10.078;2023-04-20T09:36:41;102049.38;;;13.24;100.00
15487;BME280;7845;53.698;10.078;2023-04-20T09:39:13;102054.28;;;12.39;100.00
15487;BME280;7845;53.698;10.078;2023-04-20T09:41:40;102045.91;;;13.43;100.00
15487;BME280;7845;53.698;10.078;2023-04-20T09:44:07;102042.44;;;13.52;100.00
15487;BME280;7845;53.698;10.078;2023-04-20T09:46:35;102038.03;;;13.90;100.00
15487;BME280;7845;53.698;10.078;2023-04-20T09:49:04;102025.81;;;13.63;100.00
15487;BME280;7845;53.698;10.078;2023-04-20T09:51:32;102025.81;;;13.75;100.00
15487;BME280;7845;53.698;10.078;2023-04-20T09:53:59;102031.91;;;13.86;100.00
15487;BME280;7845;53.698;10.078;2023-04-20T09:56:26;102028.41;;;14.06;100.00
15487;BME280;7845;53.698;10.078;2023-04-20T09:58:53;102023.13;;;14.10;100.00
15487;BME280;7845;53.698;10.078;2023-04-20T10:01:20;102030.16;;;13.90;100.00
15487;BME280;7845;53.698;10.078;2023-04-20T10:03:47;102023.16;;;13.89;100.00
15487;BME280;7845;53.698;10.078;2023-04-20T10:06:20;102019.66;;;13.29;100.00
15487;BME280;7845;53.698;10.078;2023-04-20T10:08:47;102011.66;;;12.73;100.00
15487;BME280;7845;53.698;10.078;2023-04-20T10:11:30;102012.63;;;13.04;100.00
15487;BME280;7845;53.698;10.078;2023-04-20T10:14:16;102004.59;;;12.53;100.00
15487;BME280;7845;53.698;10.078;2023-04-20T10:16:43;102004.66;;;12.68;100.00
15487;BME280;7845;53.698;10.078;2023-04-20T10:19:09;101992.56;;;13.17;100.00
15487;BME280;7845;53.698;10.078;2023-04-20T10:21:49;102003.84;;;13.05;100.00
15487;BME280;7845;53.698;10.078;2023-04-20T10:24:26;102013.53;;;13.21;100.00
15487;BME280;7845;53.698;10.078;2023-04-20T10:26:52;102017.06;;;13.28;100.00
15487;BME280;7845;53.698;10.078;2023-04-20T10:29:25;102014.44;;;13.49;100.00
15487;BME280;7845;53.698;10.078;2023-04-20T10:31:50;102024.91;;;13.42;100.00
15487;BME280;7845;53.698;10.078;2023-04-20T10:34:16;102029.28;;;13.37;100.00
15487;BME280;7845;53.698;10.078;2023-04-20T10:36:42;102039.75;;;14.14;100.00
15487;BME280;7845;53.698;10.078;2023-04-20T10:39:20;102039.78;;;13.80;100.00
15487;BME280;7845;53.698;10.078;2023-04-20T10:41:57;102036.31;;;13.59;100.00
15487;BME280;7845;53.698;10.078;2023-04-20T10:44:23;102031.84;;;14.29;100.00
15487;BME280;7845;53.698;10.078;2023-04-20T10:46:52;102031.00;;;14.21;100.00
15487;BME280;7845;53.698;10.078;2023-04-20T10:49:17;102037.13;;;14.21;100.00
15487;BME280;7845;53.698;10.078;2023-04-20T10:51:49;102029.22;;;14.35;100.00
15487;BME280;7845;53.698;10.078;2023-04-20T10:54:16;102025.75;;;14.15;100.00
15487;BME280;7845;53.698;10.078;2023-04-20T10:56:43;102019.56;;;14.40;100.00
15487;BME280;7845;53.698;10.078;2023-04-20T10:59:11;102021.34;;;14.27;100.00
15487;BME280;7845;53.698;10.078;2023-04-20T11:01:36;102017.84;;;14.34;100.00
15487;BME280;7845;53.698;10.078;2023-04-20T11:04:02;102025.69;;;14.45;100.00
15487;BME280;7845;53.698;10.078;2023-04-20T11:06:29;102024.69;;;14.70;100.00
15487;BME280;7845;53.698;10.078;2023-04-20T11:08:56;102018.63;;;14.58;100.00
15487;BME280;7845;53.698;10.078;2023-04-20T11:11:25;102018.50;;;14.83;100.00
15487;BME280;7845;53.698;10.078;2023-04-20T11:14:10;102007.22;;;14.66;100.00
15487;BME280;7845;53.698;10.078;2023-04-20T11:16:36;102004.56;;;14.72;100.00
15487;BME280;7845;53.698;10.078;2023-04-20T11:19:02;101999.88;;;15.18;100.00
15487;BME280;7845;53.698;10.078;2023-04-20T11:21:39;102004.41;;;14.96;100.00
15487;BME280;7845;53.698;10.078;2023-04-20T11:24:05;102008.16;;;14.50;100.00
15487;BME280;7845;53.698;10.078;2023-04-20T11:26:41;102003.84;;;14.19;100.00
15487;BME280;7845;53.698;10.078;2023-04-20T11:29:07;101998.38;;;14.84;100.00
15487;BME280;7845;53.698;10.078;2023-04-20T11:31:33;101998.09;;;15.20;100.00
15487;BME280;7845;53.698;10.078;2023-04-20T11:33:58;101997.88;;;15.55;100.00
15487;BME280;7845;53.698;10.078;2023-04-20T11:36:25;101992.25;;;14.77;100.00
15487;BME280;7845;53.698;10.078;2023-04-20T11:38:52;101993.25;;;14.52;100.00
15487;BME280;7845;53.698;10.078;2023-04-20T11:41:18;102000.09;;;14.86;100.00
15487;BME280;7845;53.698;10.078;2023-04-20T11:43:44;102009.03;;;14.49;100.00
15487;BME280;7845;53.698;10.078;2023-04-20T11:46:18;102002.78;;;14.74;100.00
15487;BME280;7845;53.698;10.078;2023-04-20T11:48:45;101997.72;;;14.17;100.00
15487;BME280;7845;53.698;10.078;2023-04-20T11:51:10;102003.81;;;14.25;100.00
15487;BME280;7845;53.698;10.078;2023-04-20T11:53:36;102004.78;;;13.92;100.00
15487;BME280;7845;53.698;10.078;2023-04-20T11:56:02;101999.38;;;14.56;100.00
15487;BME280;7845;53.698;10.078;2023-04-20T11:58:28;102002.94;;;14.30;100.00
15487;BME280;7845;53.698;10.078;2023-04-20T12:00:54;102001.13;;;14.49;100.00
15487;BME280;7845;53.698;10.078;2023-04-20T12:03:20;102007.31;;;14.28;100.00
15487;BME280;7845;53.698;10.078;2023-04-20T12:05:46;102010.91;;;13.86;100.00
15487;BME280;7845;53.698;10.078;2023-04-20T12:08:12;102012.56;;;14.44;100.00
15487;BME280;7845;53.698;10.078;2023-04-20T12:10:37;102004.78;;;13.83;100.00
15487;BME280;7845;53.698;10.078;2023-04-20T12:13:04;102013.56;;;13.76;100.00
15487;BME280;7845;53.698;10.078;2023-04-20T12:15:29;102015.28;;;14.00;100.00
15487;BME280;7845;53.698;10.078;2023-04-20T12:17:55;102009.97;;;14.16;100.00
15487;BME280;7845;53.698;10.078;2023-04-20T12:20:20;102023.16;;;14.00;100.00
15487;BME280;7845;53.698;10.078;2023-04-20T12:22:45;102019.66;;;13.98;100.00
15487;BME280;7845;53.698;10.078;2023-04-20T12:25:11;102016.06;;;14.38;100.00
15487;BME280;7845;53.698;10.078;2023-04-20T12:27:36;102016.19;;;13.58;100.00
15487;BME280;7845;53.698;10.078;2023-04-20T12:30:02;102019.59;;;14.26;100.00
15487;BME280;7845;53.698;10.078;2023-04-20T12:32:28;102024.84;;;14.42;100.00
15487;BME280;7845;53.698;10.078;2023-04-20T12:34:53;102021.38;;;14.09;100.00
15487;BME280;7845;53.698;10.078;2023-04-20T12:37:19;102017.84;;;14.39;100.00